Aviation Digital Data Service (ADDS)

Output produced by METARs form (0929 UTC 25 February 2018)
found at http://aviationweather.gov/adds/metars/
 
KJFK 250750Z 2508/2612 06010KT P6SM -RA FEW025 OVC050 
     FM250830 07011KT 5SM -RA BR SCT015 BKN025 
     TEMPO 2509/2510 6SM -RA BR BKN015 
     FM251000 08012G19KT 3SM RA BR OVC008 
     FM251200 09015G24KT 2SM RA BR OVC008 
     TEMPO 2512/2515 SCT008 OVC015 
     FM251800 07006KT 2SM -RA BR OVC008 
     TEMPO 2518/2521 1SM BR OVC004 
     FM252100 35005KT 4SM BR BKN015 
     FM260200 29005KT P6SM SCT015 BKN250 
     FM260600 31005KT P6SM BKN250